sensor_id;sensor_type;location;lat;lon;timestamp;pressure;altitude;pressure_sealevel;temperature;humidity
75668;BME280;64266;48.798;44.756;2023-12-14T00:00:16;102972.72;;;-4.56;49.91
75668;BME280;64266;48.798;44.756;2023-12-14T00:05:20;102962.50;;;-4.59;49.91
75668;BME280;64266;48.798;44.756;2023-12-14T00:10:23;102939.19;;;-4.79;50.84
75668;BME280;64266;48.798;44.756;2023-12-14T00:15:27;102948.84;;;-4.62;51.63
75668;BME280;64266;48.798;44.756;2023-12-14T00:20:30;102985.72;;;-4.37;51.45
75668;BME280;64266;48.798;44.756;2023-12-14T00:25:33;102991.59;;;-4.33;51.10
75668;BME280;64266;48.798;44.756;2023-12-14T00:30:36;102991.31;;;-4.46;52.48
75668;BME280;64266;48.798;44.756;2023-12-14T00:35:39;102923.75;;;-5.01;54.76
75668;BME280;64266;48.798;44.756;2023-12-14T00:40:42;102970.84;;;-4.72;53.49
75668;BME280;64266;48.798;44.756;2023-12-14T00:45:45;102965.72;;;-4.94;55.38
75668;BME280;64266;48.798;44.756;2023-12-14T00:50:48;102944.69;;;-5.07;55.46
75668;BME280;64266;48.798;44.756;2023-12-14T00:55:51;102949.09;;;-4.88;54.29
75668;BME280;64266;48.798;44.756;2023-12-14T01:00:54;102944.59;;;-4.83;54.43
75668;BME280;64266;48.798;44.756;2023-12-14T01:05:58;102953.50;;;-4.70;55.84
75668;BME280;64266;48.798;44.756;2023-12-14T01:11:01;102951.03;;;-4.73;53.61
75668;BME280;64266;48.798;44.756;2023-12-14T01:16:04;102923.44;;;-4.93;54.43
75668;BME280;64266;48.798;44.756;2023-12-14T01:21:07;102966.78;;;-4.78;54.64
75668;BME280;64266;48.798;44.756;2023-12-14T01:26:10;102947.03;;;-5.01;55.02
75668;BME280;64266;48.798;44.756;2023-12-14T01:31:13;102915.31;;;-5.26;56.08
75668;BME280;64266;48.798;44.756;2023-12-14T01:36:23;102941.47;;;-4.92;54.54
75668;BME280;64266;48.798;44.756;2023-12-14T01:41:27;102955.84;;;-4.84;55.48
75668;BME280;64266;48.798;44.756;2023-12-14T01:46:30;102933.31;;;-5.03;54.57
75668;BME280;64266;48.798;44.756;2023-12-14T01:51:33;102967.03;;;-4.84;55.69
75668;BME280;64266;48.798;44.756;2023-12-14T01:56:37;102968.25;;;-4.72;54.08
75668;BME280;64266;48.798;44.756;2023-12-14T02:01:45;102957.66;;;-4.86;54.07
75668;BME280;64266;48.798;44.756;2023-12-14T02:06:49;102975.50;;;-4.80;54.53
75668;BME280;64266;48.798;44.756;2023-12-14T02:11:52;102981.38;;;-4.97;54.59
75668;BME280;64266;48.798;44.756;2023-12-14T02:16:55;102956.13;;;-5.12;56.03
75668;BME280;64266;48.798;44.756;2023-12-14T02:21:58;102985.53;;;-4.93;54.07
75668;BME280;64266;48.798;44.756;2023-12-14T02:27:00;102956.47;;;-5.00;53.74
75668;BME280;64266;48.798;44.756;2023-12-14T02:32:05;102993.03;;;-4.87;54.87
75668;BME280;64266;48.798;44.756;2023-12-14T02:37:08;102960.75;;;-4.99;53.20
75668;BME280;64266;48.798;44.756;2023-12-14T02:42:11;102961.00;;;-5.05;54.77
75668;BME280;64266;48.798;44.756;2023-12-14T02:47:15;102954.34;;;-4.90;53.96
75668;BME280;64266;48.798;44.756;2023-12-14T02:52:17;102985.84;;;-4.60;53.30
75668;BME280;64266;48.798;44.756;2023-12-14T02:57:20;102962.19;;;-4.71;53.73
75668;BME280;64266;48.798;44.756;2023-12-14T03:02:23;102968.13;;;-4.69;52.74
75668;BME280;64266;48.798;44.756;2023-12-14T03:07:26;102978.97;;;-4.61;53.02
75668;BME280;64266;48.798;44.756;2023-12-14T03:12:29;102960.78;;;-5.00;53.72
75668;BME280;64266;48.798;44.756;2023-12-14T03:17:32;102981.44;;;-4.78;53.80
75668;BME280;64266;48.798;44.756;2023-12-14T03:22:35;102990.56;;;-4.70;54.11
75668;BME280;64266;48.798;44.756;2023-12-14T03:27:39;103006.22;;;-4.73;55.46
75668;BME280;64266;48.798;44.756;2023-12-14T03:32:42;102989.66;;;-4.89;55.20
75668;BME280;64266;48.798;44.756;2023-12-14T03:37:45;102986.50;;;-4.96;56.10
75668;BME280;64266;48.798;44.756;2023-12-14T03:42:48;102986.00;;;-4.83;55.82
75668;BME280;64266;48.798;44.756;2023-12-14T03:47:51;102955.97;;;-4.87;55.85
75668;BME280;64266;48.798;44.756;2023-12-14T03:52:54;102991.78;;;-4.38;55.73
75668;BME280;64266;48.798;44.756;2023-12-14T03:57:57;102968.25;;;-4.52;55.34
75668;BME280;64266;48.798;44.756;2023-12-14T04:03:00;102931.91;;;-4.89;56.00
75668;BME280;64266;48.798;44.756;2023-12-14T04:08:03;102987.28;;;-4.53;53.76
75668;BME280;64266;48.798;44.756;2023-12-14T04:13:06;102989.03;;;-4.54;53.59
75668;BME280;64266;48.798;44.756;2023-12-14T04:18:09;102986.47;;;-4.55;53.90
75668;BME280;64266;48.798;44.756;2023-12-14T04:23:12;103010.63;;;-4.55;54.44
75668;BME280;64266;48.798;44.756;2023-12-14T04:28:15;103008.56;;;-4.47;54.45
75668;BME280;64266;48.798;44.756;2023-12-14T04:33:18;103007.84;;;-4.30;53.82
75668;BME280;64266;48.798;44.756;2023-12-14T04:38:21;103012.50;;;-4.38;53.42
75668;BME280;64266;48.798;44.756;2023-12-14T04:43:24;102974.38;;;-4.34;53.61
75668;BME280;64266;48.798;44.756;2023-12-14T04:48:27;103003.41;;;-4.08;52.15
75668;BME280;64266;48.798;44.756;2023-12-14T04:53:30;102991.44;;;-3.92;51.07
75668;BME280;64266;48.798;44.756;2023-12-14T04:58:33;103011.06;;;-3.86;50.74
75668;BME280;64266;48.798;44.756;2023-12-14T05:03:36;103017.38;;;-3.92;49.99
75668;BME280;64266;48.798;44.756;2023-12-14T05:08:39;103015.06;;;-3.79;49.53
75668;BME280;64266;48.798;44.756;2023-12-14T05:13:43;102977.94;;;-3.98;50.64
75668;BME280;64266;48.798;44.756;2023-12-14T05:18:46;102998.31;;;-3.72;49.03
75668;BME280;64266;48.798;44.756;2023-12-14T05:23:49;103020.72;;;-3.52;48.37
75668;BME280;64266;48.798;44.756;2023-12-14T05:28:52;102992.41;;;-3.57;47.35
75668;BME280;64266;48.798;44.756;2023-12-14T05:34:00;102968.47;;;-3.80;47.29
75668;BME280;64266;48.798;44.756;2023-12-14T05:39:05;103013.16;;;-3.57;46.67
75668;BME280;64266;48.798;44.756;2023-12-14T05:44:08;103027.19;;;-3.42;47.38
75668;BME280;64266;48.798;44.756;2023-12-14T05:49:11;103014.91;;;-3.39;47.50
75668;BME280;64266;48.798;44.756;2023-12-14T05:54:14;103006.91;;;-3.53;47.08
75668;BME280;64266;48.798;44.756;2023-12-14T05:59:17;103006.16;;;-3.55;45.94
75668;BME280;64266;48.798;44.756;2023-12-14T06:04:21;103029.06;;;-3.27;46.57
75668;BME280;64266;48.798;44.756;2023-12-14T06:09:27;103006.06;;;-3.35;46.26
75668;BME280;64266;48.798;44.756;2023-12-14T06:14:37;103067.03;;;-3.26;44.50
75668;BME280;64266;48.798;44.756;2023-12-14T06:19:40;102935.19;;;-3.90;46.74
75668;BME280;64266;48.798;44.756;2023-12-14T06:24:43;103018.78;;;-3.11;45.31
75668;BME280;64266;48.798;44.756;2023-12-14T06:29:46;103006.13;;;-3.17;45.14
75668;BME280;64266;48.798;44.756;2023-12-14T06:34:50;103015.09;;;-2.71;44.66
75668;BME280;64266;48.798;44.756;2023-12-14T06:40:16;102990.50;;;-2.82;43.88
75668;BME280;64266;48.798;44.756;2023-12-14T06:45:19;102990.50;;;-2.99;45.15
75668;BME280;64266;48.798;44.756;2023-12-14T06:50:22;102975.97;;;-2.86;44.61
75668;BME280;64266;48.798;44.756;2023-12-14T06:55:25;102923.06;;;-3.00;44.64
75668;BME280;64266;48.798;44.756;2023-12-14T07:00:28;102970.28;;;-2.42;44.34
75668;BME280;64266;48.798;44.756;2023-12-14T07:05:35;102973.19;;;-2.31;43.40
75668;BME280;64266;48.798;44.756;2023-12-14T07:10:41;102963.63;;;-2.81;44.86
75668;BME280;64266;48.798;44.756;2023-12-14T07:15:45;103006.66;;;-2.42;45.30
75668;BME280;64266;48.798;44.756;2023-12-14T07:20:48;103003.31;;;-2.79;44.75
75668;BME280;64266;48.798;44.756;2023-12-14T07:25:54;102994.91;;;-2.49;44.21
75668;BME280;64266;48.798;44.756;2023-12-14T07:31:10;102973.28;;;-2.50;43.24
75668;BME280;64266;48.798;44.756;2023-12-14T07:36:13;103009.41;;;-2.45;42.76
75668;BME280;64266;48.798;44.756;2023-12-14T07:41:16;103028.50;;;-2.29;43.59
75668;BME280;64266;48.798;44.756;2023-12-14T07:46:20;102963.00;;;-2.68;42.84
75668;BME280;64266;48.798;44.756;2023-12-14T07:51:22;102994.53;;;-2.76;43.58
75668;BME280;64266;48.798;44.756;2023-12-14T07:56:25;102918.44;;;-3.11;43.91
75668;BME280;64266;48.798;44.756;2023-12-14T08:01:30;102909.78;;;-3.29;43.54
75668;BME280;64266;48.798;44.756;2023-12-14T08:06:33;102902.94;;;-3.30;43.58
75668;BME280;64266;48.798;44.756;2023-12-14T08:11:36;102944.66;;;-2.83;42.45
75668;BME280;64266;48.798;44.756;2023-12-14T08:16:39;102936.09;;;-2.67;43.28
75668;BME280;64266;48.798;44.756;2023-12-14T08:21:42;102971.19;;;-2.26;42.10
75668;BME280;64266;48.798;44.756;2023-12-14T08:26:45;102976.59;;;-2.46;42.64
75668;BME280;64266;48.798;44.756;2023-12-14T08:31:48;102986.56;;;-2.39;42.28
75668;BME280;64266;48.798;44.756;2023-12-14T08:36:52;102928.97;;;-2.47;42.21
75668;BME280;64266;48.798;44.756;2023-12-14T08:41:54;102971.44;;;-2.48;42.21
75668;BME280;64266;48.798;44.756;2023-12-14T08:47:00;102966.69;;;-2.40;42.43
75668;BME280;64266;48.798;44.756;2023-12-14T08:52:12;102966.25;;;-2.15;41.50
75668;BME280;64266;48.798;44.756;2023-12-14T08:57:17;102948.22;;;-2.51;41.09
75668;BME280;64266;48.798;44.756;2023-12-14T09:02:20;102878.75;;;-2.96;41.15
75668;BME280;64266;48.798;44.756;2023-12-14T09:07:23;102896.28;;;-3.18;43.48
75668;BME280;64266;48.798;44.756;2023-12-14T09:12:26;103011.53;;;-2.36;42.86
75668;BME280;64266;48.798;44.756;2023-12-14T09:17:29;102987.47;;;-2.40;42.14
75668;BME280;64266;48.798;44.756;2023-12-14T09:22:39;102899.41;;;-2.94;41.80
75668;BME280;64266;48.798;44.756;2023-12-14T09:27:42;102893.06;;;-2.89;41.93
75668;BME280;64266;48.798;44.756;2023-12-14T09:32:45;102902.56;;;-2.55;42.71
75668;BME280;64266;48.798;44.756;2023-12-14T09:37:51;102917.84;;;-2.33;42.43
75668;BME280;64266;48.798;44.756;2023-12-14T09:42:56;102954.41;;;-1.88;42.07
75668;BME280;64266;48.798;44.756;2023-12-14T09:48:00;102953.03;;;-1.95;41.32
75668;BME280;64266;48.798;44.756;2023-12-14T09:53:04;102951.84;;;-2.05;41.63
75668;BME280;64266;48.798;44.756;2023-12-14T09:58:08;102912.78;;;-2.19;43.06
75668;BME280;64266;48.798;44.756;2023-12-14T10:03:26;102921.91;;;-2.12;42.35
75668;BME280;64266;48.798;44.756;2023-12-14T10:08:31;102960.75;;;-1.93;41.11
75668;BME280;64266;48.798;44.756;2023-12-14T10:13:37;102909.84;;;-2.13;41.06
75668;BME280;64266;48.798;44.756;2023-12-14T10:18:42;102841.09;;;-2.39;41.97
75668;BME280;64266;48.798;44.756;2023-12-14T10:23:45;102816.03;;;-2.40;41.29
75668;BME280;64266;48.798;44.756;2023-12-14T10:28:50;102829.28;;;-2.44;41.15
75668;BME280;64266;48.798;44.756;2023-12-14T10:33:54;102906.47;;;-1.99;41.01
75668;BME280;64266;48.798;44.756;2023-12-14T10:39:00;102952.78;;;-1.75;41.96
75668;BME280;64266;48.798;44.756;2023-12-14T10:44:04;102961.59;;;-1.77;42.01
75668;BME280;64266;48.798;44.756;2023-12-14T10:49:28;102939.22;;;-1.80;41.80
75668;BME280;64266;48.798;44.756;2023-12-14T10:54:37;102840.34;;;-2.41;42.25
75668;BME280;64266;48.798;44.756;2023-12-14T10:59:42;102911.34;;;-2.09;41.01
75668;BME280;64266;48.798;44.756;2023-12-14T11:04:55;102887.19;;;-2.11;41.33
75668;BME280;64266;48.798;44.756;2023-12-14T11:10:06;102827.97;;;-2.68;42.00
75668;BME280;64266;48.798;44.756;2023-12-14T11:15:21;102895.41;;;-2.34;41.96
75668;BME280;64266;48.798;44.756;2023-12-14T11:20:24;102879.56;;;-2.30;42.88
75668;BME280;64266;48.798;44.756;2023-12-14T11:25:34;102805.94;;;-2.77;40.63
75668;BME280;64266;48.798;44.756;2023-12-14T11:30:47;102913.91;;;-2.40;41.03
75668;BME280;64266;48.798;44.756;2023-12-14T11:36:01;102890.03;;;-2.47;41.07
75668;BME280;64266;48.798;44.756;2023-12-14T11:41:06;102774.22;;;-3.32;41.65
75668;BME280;64266;48.798;44.756;2023-12-14T11:46:11;102823.34;;;-3.12;42.48
75668;BME280;64266;48.798;44.756;2023-12-14T11:51:18;102864.34;;;-2.68;41.98
75668;BME280;64266;48.798;44.756;2023-12-14T11:56:20;102805.91;;;-2.93;41.39
75668;BME280;64266;48.798;44.756;2023-12-14T12:01:25;102764.38;;;-3.25;40.43
75668;BME280;64266;48.798;44.756;2023-12-14T12:06:33;102878.31;;;-2.71;41.77
75668;BME280;64266;48.798;44.756;2023-12-14T12:11:36;102865.34;;;-2.88;41.67
75668;BME280;64266;48.798;44.756;2023-12-14T12:16:39;102896.44;;;-2.87;42.48
75668;BME280;64266;48.798;44.756;2023-12-14T12:21:42;102856.41;;;-2.83;42.46
75668;BME280;64266;48.798;44.756;2023-12-14T12:26:45;102867.41;;;-2.95;42.39
75668;BME280;64266;48.798;44.756;2023-12-14T12:31:48;102865.28;;;-2.87;41.65
75668;BME280;64266;48.798;44.756;2023-12-14T12:36:51;102907.41;;;-2.82;42.28
75668;BME280;64266;48.798;44.756;2023-12-14T12:41:54;102823.34;;;-3.46;42.14
75668;BME280;64266;48.798;44.756;2023-12-14T12:46:57;102908.56;;;-2.87;42.94
75668;BME280;64266;48.798;44.756;2023-12-14T12:52:12;102914.97;;;-2.94;41.97
75668;BME280;64266;48.798;44.756;2023-12-14T12:57:15;102894.41;;;-3.14;41.96
75668;BME280;64266;48.798;44.756;2023-12-14T13:02:18;102921.56;;;-3.21;42.39
75668;BME280;64266;48.798;44.756;2023-12-14T13:07:21;102879.22;;;-3.75;42.35
75668;BME280;64266;48.798;44.756;2023-12-14T13:12:25;102925.22;;;-3.97;43.36
75668;BME280;64266;48.798;44.756;2023-12-14T13:17:28;102947.44;;;-4.12;45.16
75668;BME280;64266;48.798;44.756;2023-12-14T13:22:31;102924.19;;;-4.32;44.10
75668;BME280;64266;48.798;44.756;2023-12-14T13:27:34;102982.06;;;-3.94;43.80
75668;BME280;64266;48.798;44.756;2023-12-14T13:32:41;102961.81;;;-4.05;44.28
75668;BME280;64266;48.798;44.756;2023-12-14T13:37:43;102934.00;;;-4.20;44.57
75668;BME280;64266;48.798;44.756;2023-12-14T13:42:47;102992.72;;;-3.81;44.94
75668;BME280;64266;48.798;44.756;2023-12-14T13:48:05;102963.91;;;-4.13;44.45
75668;BME280;64266;48.798;44.756;2023-12-14T13:53:10;103001.81;;;-3.92;44.05
75668;BME280;64266;48.798;44.756;2023-12-14T13:58:13;103017.25;;;-3.70;45.22
75668;BME280;64266;48.798;44.756;2023-12-14T14:03:16;103027.94;;;-3.59;44.84
75668;BME280;64266;48.798;44.756;2023-12-14T14:08:19;102967.16;;;-3.89;45.18
75668;BME280;64266;48.798;44.756;2023-12-14T14:13:24;103029.69;;;-3.78;44.94
75668;BME280;64266;48.798;44.756;2023-12-14T14:18:27;103012.81;;;-3.87;45.71
75668;BME280;64266;48.798;44.756;2023-12-14T14:23:30;103019.72;;;-3.87;46.00
75668;BME280;64266;48.798;44.756;2023-12-14T14:28:34;102989.03;;;-4.15;45.01
75668;BME280;64266;48.798;44.756;2023-12-14T14:33:37;102990.56;;;-4.29;45.09
75668;BME280;64266;48.798;44.756;2023-12-14T14:38:40;102976.97;;;-4.34;45.69
75668;BME280;64266;48.798;44.756;2023-12-14T14:43:43;103012.47;;;-3.98;44.92
75668;BME280;64266;48.798;44.756;2023-12-14T14:48:46;102976.34;;;-4.21;45.96
75668;BME280;64266;48.798;44.756;2023-12-14T14:53:50;102995.22;;;-3.99;45.06
75668;BME280;64266;48.798;44.756;2023-12-14T14:58:53;102878.31;;;-4.67;44.82
75668;BME280;64266;48.798;44.756;2023-12-14T15:03:56;102911.66;;;-4.41;44.98
75668;BME280;64266;48.798;44.756;2023-12-14T15:09:00;102915.94;;;-4.40;44.30
75668;BME280;64266;48.798;44.756;2023-12-14T15:14:03;102926.00;;;-4.53;45.70
75668;BME280;64266;48.798;44.756;2023-12-14T15:19:06;102913.38;;;-4.60;46.00
75668;BME280;64266;48.798;44.756;2023-12-14T15:24:09;102960.41;;;-4.51;47.51
75668;BME280;64266;48.798;44.756;2023-12-14T15:29:12;102966.44;;;-4.50;47.51
75668;BME280;64266;48.798;44.756;2023-12-14T15:34:15;102955.25;;;-4.51;46.40
75668;BME280;64266;48.798;44.756;2023-12-14T15:39:18;102933.91;;;-4.56;46.78
75668;BME280;64266;48.798;44.756;2023-12-14T15:44:21;102917.38;;;-4.73;46.96
75668;BME280;64266;48.798;44.756;2023-12-14T15:49:24;102926.78;;;-4.71;47.19
75668;BME280;64266;48.798;44.756;2023-12-14T15:54:27;102921.63;;;-4.71;47.58
75668;BME280;64266;48.798;44.756;2023-12-14T15:59:30;102979.56;;;-4.34;48.13
75668;BME280;64266;48.798;44.756;2023-12-14T16:04:34;102947.09;;;-4.62;46.63
75668;BME280;64266;48.798;44.756;2023-12-14T16:09:37;102949.97;;;-4.68;46.84
75668;BME280;64266;48.798;44.756;2023-12-14T16:14:41;102957.78;;;-4.49;47.12
75668;BME280;64266;48.798;44.756;2023-12-14T16:19:44;102959.06;;;-4.59;46.16
75668;BME280;64266;48.798;44.756;2023-12-14T16:24:50;102936.31;;;-4.71;44.72
75668;BME280;64266;48.798;44.756;2023-12-14T16:29:53;102971.03;;;-4.57;45.06
75668;BME280;64266;48.798;44.756;2023-12-14T16:34:56;102861.13;;;-5.29;45.34
75668;BME280;64266;48.798;44.756;2023-12-14T16:40:00;102949.69;;;-4.82;46.85
75668;BME280;64266;48.798;44.756;2023-12-14T16:45:05;102933.38;;;-4.84;46.35
75668;BME280;64266;48.798;44.756;2023-12-14T16:50:09;102890.63;;;-5.13;46.10
75668;BME280;64266;48.798;44.756;2023-12-14T16:55:14;102874.88;;;-5.27;48.24
75668;BME280;64266;48.798;44.756;2023-12-14T17:00:17;102903.31;;;-5.07;46.96
75668;BME280;64266;48.798;44.756;2023-12-14T17:05:21;102878.03;;;-5.20;46.36
75668;BME280;64266;48.798;44.756;2023-12-14T17:10:23;102873.28;;;-5.31;46.50
75668;BME280;64266;48.798;44.756;2023-12-14T17:15:27;102918.81;;;-5.07;47.12
75668;BME280;64266;48.798;44.756;2023-12-14T17:20:34;102903.00;;;-4.99;45.39
75668;BME280;64266;48.798;44.756;2023-12-14T17:25:37;102914.69;;;-4.90;45.71
75668;BME280;64266;48.798;44.756;2023-12-14T17:30:40;102906.16;;;-5.13;45.27
75668;BME280;64266;48.798;44.756;2023-12-14T17:35:44;102848.22;;;-5.49;45.51
75668;BME280;64266;48.798;44.756;2023-12-14T17:40:47;102906.44;;;-4.99;45.28
75668;BME280;64266;48.798;44.756;2023-12-14T17:45:50;102788.13;;;-5.54;44.69
75668;BME280;64266;48.798;44.756;2023-12-14T17:51:00;102769.53;;;-5.84;44.20
75668;BME280;64266;48.798;44.756;2023-12-14T17:56:07;102807.09;;;-5.55;43.58
75668;BME280;64266;48.798;44.756;2023-12-14T18:01:16;102788.44;;;-5.62;44.85
75668;BME280;64266;48.798;44.756;2023-12-14T18:06:32;102872.28;;;-5.27;45.65
75668;BME280;64266;48.798;44.756;2023-12-14T18:11:45;102847.94;;;-5.43;45.17
75668;BME280;64266;48.798;44.756;2023-12-14T18:16:48;102742.41;;;-6.14;45.61
75668;BME280;64266;48.798;44.756;2023-12-14T18:21:56;102790.88;;;-5.79;46.00
75668;BME280;64266;48.798;44.756;2023-12-14T18:27:05;102789.50;;;-5.87;45.86
75668;BME280;64266;48.798;44.756;2023-12-14T18:32:16;102729.59;;;-6.37;45.40
75668;BME280;64266;48.798;44.756;2023-12-14T18:37:20;102731.69;;;-6.25;44.48
75668;BME280;64266;48.798;44.756;2023-12-14T18:42:30;102794.53;;;-5.84;45.32
75668;BME280;64266;48.798;44.756;2023-12-14T18:47:37;102881.25;;;-5.15;45.05
75668;BME280;64266;48.798;44.756;2023-12-14T18:52:51;102825.88;;;-5.30;44.41
75668;BME280;64266;48.798;44.756;2023-12-14T19:03:41;102811.19;;;-5.50;44.14
75668;BME280;64266;48.798;44.756;2023-12-14T19:08:58;102818.75;;;-5.45;44.22
75668;BME280;64266;48.798;44.756;2023-12-14T19:14:24;102807.63;;;-5.47;45.55
75668;BME280;64266;48.798;44.756;2023-12-14T19:19:38;102833.50;;;-5.27;45.12
75668;BME280;64266;48.798;44.756;2023-12-14T19:24:55;102795.66;;;-5.50;44.02
75668;BME280;64266;48.798;44.756;2023-12-14T19:30:16;102779.56;;;-5.56;43.75
75668;BME280;64266;48.798;44.756;2023-12-14T19:35:31;102826.84;;;-5.32;44.24
75668;BME280;64266;48.798;44.756;2023-12-14T19:40:50;102825.78;;;-5.28;44.57
75668;BME280;64266;48.798;44.756;2023-12-14T19:45:56;102812.34;;;-5.36;44.17
75668;BME280;64266;48.798;44.756;2023-12-14T19:50:59;102851.84;;;-5.13;45.18
75668;BME280;64266;48.798;44.756;2023-12-14T19:56:02;102839.13;;;-5.17;43.39
75668;BME280;64266;48.798;44.756;2023-12-14T20:01:06;102855.34;;;-5.14;45.12
75668;BME280;64266;48.798;44.756;2023-12-14T20:06:19;102851.13;;;-5.16;44.53
75668;BME280;64266;48.798;44.756;2023-12-14T20:11:22;102826.50;;;-5.25;44.71
75668;BME280;64266;48.798;44.756;2023-12-14T20:16:25;102862.44;;;-4.99;44.98
75668;BME280;64266;48.798;44.756;2023-12-14T20:21:29;102797.75;;;-5.37;44.58
75668;BME280;64266;48.798;44.756;2023-12-14T20:26:32;102863.66;;;-4.87;44.19
75668;BME280;64266;48.798;44.756;2023-12-14T20:31:35;102842.03;;;-5.05;44.00
75668;BME280;64266;48.798;44.756;2023-12-14T20:36:38;102875.31;;;-4.77;43.47
75668;BME280;64266;48.798;44.756;2023-12-14T20:41:41;102829.63;;;-4.98;43.24
75668;BME280;64266;48.798;44.756;2023-12-14T20:46:44;102816.84;;;-5.01;45.15
75668;BME280;64266;48.798;44.756;2023-12-14T20:51:48;102819.59;;;-4.85;44.50
75668;BME280;64266;48.798;44.756;2023-12-14T20:56:51;102801.22;;;-5.18;43.26
75668;BME280;64266;48.798;44.756;2023-12-14T21:01:54;102852.53;;;-4.89;44.47
75668;BME280;64266;48.798;44.756;2023-12-14T21:06:58;102794.72;;;-5.27;44.15
75668;BME280;64266;48.798;44.756;2023-12-14T21:12:01;102812.03;;;-5.09;45.34
75668;BME280;64266;48.798;44.756;2023-12-14T21:17:05;102813.56;;;-5.05;45.03
75668;BME280;64266;48.798;44.756;2023-12-14T21:22:08;102795.59;;;-5.28;44.93
75668;BME280;64266;48.798;44.756;2023-12-14T21:27:11;102858.44;;;-5.06;44.47
75668;BME280;64266;48.798;44.756;2023-12-14T21:32:33;102796.00;;;-5.37;44.58
75668;BME280;64266;48.798;44.756;2023-12-14T21:37:36;102834.81;;;-4.98;44.83
75668;BME280;64266;48.798;44.756;2023-12-14T21:42:40;102768.47;;;-5.18;44.80
75668;BME280;64266;48.798;44.756;2023-12-14T21:47:43;102817.38;;;-4.93;44.84
75668;BME280;64266;48.798;44.756;2023-12-14T21:52:46;102822.16;;;-5.04;44.68
75668;BME280;64266;48.798;44.756;2023-12-14T21:57:49;102782.63;;;-5.26;44.67
75668;BME280;64266;48.798;44.756;2023-12-14T22:02:53;102764.00;;;-5.34;45.45
75668;BME280;64266;48.798;44.756;2023-12-14T22:07:56;102773.91;;;-5.24;44.38
75668;BME280;64266;48.798;44.756;2023-12-14T22:13:25;102753.34;;;-5.47;45.85
75668;BME280;64266;48.798;44.756;2023-12-14T22:18:28;102744.66;;;-5.44;45.23
75668;BME280;64266;48.798;44.756;2023-12-14T22:23:31;102774.69;;;-5.03;44.82
75668;BME280;64266;48.798;44.756;2023-12-14T22:28:34;102769.94;;;-5.12;44.43
75668;BME280;64266;48.798;44.756;2023-12-14T22:33:37;102776.44;;;-5.04;45.03
75668;BME280;64266;48.798;44.756;2023-12-14T22:38:40;102762.94;;;-5.10;45.33
75668;BME280;64266;48.798;44.756;2023-12-14T22:43:43;102738.97;;;-5.14;44.72
75668;BME280;64266;48.798;44.756;2023-12-14T22:48:46;102753.06;;;-5.21;44.94
75668;BME280;64266;48.798;44.756;2023-12-14T22:53:49;102744.56;;;-5.04;45.58
75668;BME280;64266;48.798;44.756;2023-12-14T22:58:53;102736.09;;;-5.26;43.75
75668;BME280;64266;48.798;44.756;2023-12-14T23:03:56;102759.91;;;-5.20;44.05
75668;BME280;64266;48.798;44.756;2023-12-14T23:09:00;102761.41;;;-5.34;45.02
75668;BME280;64266;48.798;44.756;2023-12-14T23:14:03;102718.47;;;-5.57;44.27
75668;BME280;64266;48.798;44.756;2023-12-14T23:19:06;102722.41;;;-5.49;44.73
75668;BME280;64266;48.798;44.756;2023-12-14T23:24:09;102717.59;;;-5.37;46.28
75668;BME280;64266;48.798;44.756;2023-12-14T23:29:12;102710.91;;;-5.41;45.60
75668;BME280;64266;48.798;44.756;2023-12-14T23:34:15;102743.25;;;-4.94;45.60
75668;BME280;64266;48.798;44.756;2023-12-14T23:39:18;102735.28;;;-5.08;44.97
75668;BME280;64266;48.798;44.756;2023-12-14T23:44:21;102667.72;;;-5.39;46.57
75668;BME280;64266;48.798;44.756;2023-12-14T23:49:24;102678.63;;;-5.33;45.42
75668;BME280;64266;48.798;44.756;2023-12-14T23:54:27;102708.47;;;-5.07;45.42
75668;BME280;64266;48.798;44.756;2023-12-14T23:59:30;102695.75;;;-5.30;46.07
